createdAt,value
2023-03-17T08:39:12.975Z,4.19
2023-03-17T08:41:41.824Z,5.07
2023-03-17T08:44:10.907Z,5.28
2023-03-17T08:47:25.118Z,5.42
2023-03-17T08:49:53.508Z,5.57
2023-03-17T08:52:22.488Z,5.64
2023-03-17T08:54:50.474Z,5.71
2023-03-17T08:57:19.661Z,5.78
2023-03-17T08:59:48.205Z,5.80
2023-03-17T09:02:16.260Z,5.84
2023-03-17T09:04:44.393Z,5.86
2023-03-17T09:07:13.325Z,5.87
2023-03-17T09:09:42.494Z,5.91
2023-03-17T09:12:11.232Z,5.96
2023-03-17T09:14:44.404Z,6.01
2023-03-17T09:17:13.964Z,6.05
2023-03-17T09:19:42.013Z,6.07
2023-03-17T09:22:14.786Z,6.06
2023-03-17T09:24:42.731Z,6.10
2023-03-17T09:27:13.595Z,6.12
2023-03-17T09:29:42.801Z,6.17
2023-03-17T09:32:11.314Z,6.21
2023-03-17T09:34:39.464Z,6.24
2023-03-17T09:37:10.060Z,6.26
2023-03-17T09:39:39.206Z,6.26
2023-03-17T09:42:33.557Z,6.25
2023-03-17T09:45:13.477Z,6.27
2023-03-17T09:48:21.800Z,6.28
2023-03-17T09:51:05.111Z,6.32
2023-03-17T09:53:42.883Z,6.36
2023-03-17T09:56:16.416Z,6.39
2023-03-17T09:58:59.636Z,6.40
2023-03-17T10:01:28.313Z,6.41
2023-03-17T10:03:56.542Z,6.43
2023-03-17T10:06:39.052Z,6.44
2023-03-17T10:09:28.374Z,6.42
2023-03-17T10:12:11.156Z,6.41
2023-03-17T10:14:56.441Z,6.41
2023-03-17T10:17:31.077Z,6.42
2023-03-17T10:20:29.236Z,6.42
2023-03-17T10:22:59.712Z,6.42
2023-03-17T10:25:35.534Z,6.42
2023-03-17T10:28:14.529Z,6.40
2023-03-17T10:30:44.055Z,6.44
2023-03-17T10:33:12.725Z,6.48
2023-03-17T10:35:44.897Z,6.50
2023-03-17T10:38:21.568Z,6.51
2023-03-17T10:41:07.017Z,6.50
2023-03-17T10:43:41.146Z,6.48
2023-03-17T10:46:22.420Z,6.50
2023-03-17T10:48:56.573Z,6.57
2023-03-17T10:51:32.691Z,6.61
2023-03-17T10:54:02.317Z,6.60
2023-03-17T10:56:34.070Z,6.63
2023-03-17T10:59:15.076Z,6.67
2023-03-17T11:01:54.172Z,6.68
2023-03-17T11:04:30.869Z,6.67
2023-03-17T11:07:01.172Z,6.68
2023-03-17T11:09:30.680Z,6.67
2023-03-17T11:12:18.874Z,6.67
2023-03-17T11:14:48.458Z,6.68
2023-03-17T11:17:19.120Z,6.69
2023-03-17T11:20:07.445Z,6.69
2023-03-17T11:22:43.132Z,6.72
2023-03-17T11:25:19.466Z,6.71
2023-03-17T11:27:52.208Z,6.69
2023-03-17T11:30:40.133Z,6.67
2023-03-17T11:33:23.298Z,6.70
2023-03-17T11:36:01.091Z,6.70
2023-03-17T11:38:31.018Z,6.76
2023-03-17T11:41:21.102Z,6.80
2023-03-17T11:44:27.274Z,6.83
2023-03-17T11:47:06.715Z,6.86
2023-03-17T11:49:37.727Z,6.87
2023-03-17T11:52:38.899Z,6.90
2023-03-17T11:55:31.311Z,6.88
2023-03-17T11:58:05.349Z,6.90
2023-03-17T12:00:43.840Z,6.89
2023-03-17T12:03:20.185Z,6.88
2023-03-17T12:05:50.475Z,6.87
2023-03-17T12:08:38.713Z,6.88
2023-03-17T12:11:10.690Z,6.90
2023-03-17T12:13:43.066Z,6.92
2023-03-17T12:16:21.923Z,6.94
2023-03-17T12:19:24.649Z,6.89
2023-03-17T12:21:59.458Z,6.82
2023-03-17T12:24:43.936Z,6.80
2023-03-17T12:27:28.739Z,6.81
2023-03-17T12:30:06.622Z,6.82
2023-03-17T12:32:46.697Z,6.82
2023-03-17T12:35:29.635Z,6.80
2023-03-17T12:37:59.265Z,6.80
2023-03-17T12:40:36.381Z,6.83
2023-03-17T12:43:29.321Z,6.86
2023-03-17T12:46:08.982Z,6.89
2023-03-17T12:48:50.555Z,6.91
2023-03-17T12:51:43.928Z,6.90
2023-03-17T12:54:15.414Z,6.90
2023-03-17T12:56:44.941Z,6.91
2023-03-17T12:59:21.280Z,6.92
2023-03-17T13:01:57.531Z,6.93
2023-03-17T13:04:32.408Z,6.93
2023-03-17T13:07:18.301Z,6.92
2023-03-17T13:09:55.324Z,6.87
2023-03-17T13:12:44.524Z,6.86
2023-03-17T13:15:26.932Z,6.89
2023-03-17T13:18:22.618Z,6.91
2023-03-17T13:20:56.687Z,6.91
2023-03-17T13:23:41.921Z,6.91
2023-03-17T13:26:20.963Z,6.88
2023-03-17T13:28:51.087Z,6.87
2023-03-17T13:31:31.185Z,6.88
2023-03-17T13:34:14.301Z,6.83
2023-03-17T13:37:01.724Z,6.80
2023-03-17T13:39:42.315Z,6.81
2023-03-17T13:42:25.909Z,6.82
2023-03-17T13:45:22.098Z,6.80
2023-03-17T13:47:51.278Z,6.79
2023-03-17T13:50:25.477Z,6.79
2023-03-17T13:52:56.560Z,6.88
2023-03-17T13:55:25.145Z,6.91
2023-03-17T13:58:23.250Z,6.90
2023-03-17T14:00:56.672Z,6.89
2023-03-17T14:03:36.712Z,6.87
2023-03-17T14:06:06.748Z,6.82
2023-03-17T14:08:37.574Z,6.80
2023-03-17T14:11:36.688Z,6.82
2023-03-17T14:14:37.313Z,6.80
2023-03-17T14:17:21.093Z,6.74
2023-03-17T14:20:19.794Z,6.75
2023-03-17T14:22:53.867Z,6.75
2023-03-17T14:25:36.178Z,6.80
2023-03-17T14:28:06.139Z,6.88
2023-03-17T14:30:35.027Z,6.86
2023-03-17T14:33:23.612Z,6.88
2023-03-17T14:35:53.046Z,6.85
2023-03-17T14:38:31.354Z,6.82
2023-03-17T14:41:20.900Z,6.82
2023-03-17T14:43:49.629Z,6.78
2023-03-17T14:46:22.994Z,6.74
2023-03-17T14:48:56.464Z,6.68
2023-03-17T14:51:26.462Z,6.61
2023-03-17T14:53:57.406Z,6.60
2023-03-17T14:56:35.760Z,6.61
2023-03-17T14:59:16.216Z,6.63
2023-03-17T15:01:47.681Z,6.61
2023-03-17T15:04:29.854Z,6.58
2023-03-17T15:07:02.784Z,6.51
2023-03-17T15:09:34.168Z,6.49
2023-03-17T15:12:13.303Z,6.55
2023-03-17T15:14:42.298Z,6.51
2023-03-17T15:17:21.981Z,6.48
2023-03-17T15:19:52.823Z,6.56
2023-03-17T15:22:24.678Z,6.59
2023-03-17T15:25:00.234Z,6.59
2023-03-17T15:27:30.017Z,6.58
2023-03-17T15:29:58.522Z,6.55
2023-03-17T15:32:26.979Z,6.55
2023-03-17T15:34:57.136Z,6.57
2023-03-17T15:37:29.443Z,6.56
2023-03-17T15:39:57.992Z,6.57
2023-03-17T15:42:31.166Z,6.58
2023-03-17T15:45:02.988Z,6.53
2023-03-17T15:47:32.944Z,6.49
2023-03-17T15:50:25.540Z,6.50
2023-03-17T15:52:56.460Z,6.49
2023-03-17T15:55:29.907Z,6.48
2023-03-17T15:57:58.466Z,6.53
2023-03-17T16:00:34.830Z,6.58
2023-03-17T16:03:28.332Z,6.59
2023-03-17T16:05:56.271Z,6.59
2023-03-17T16:08:24.919Z,6.58
2023-03-17T16:10:53.476Z,6.59
2023-03-17T16:13:22.398Z,6.60
2023-03-17T16:15:57.151Z,6.62
2023-03-17T16:18:36.131Z,6.54
2023-03-17T16:21:09.154Z,6.55
2023-03-17T16:23:40.216Z,6.59
2023-03-17T16:26:15.572Z,6.62
2023-03-17T16:28:46.119Z,6.62
2023-03-17T16:31:26.822Z,6.63
2023-03-17T16:33:54.982Z,6.62
2023-03-17T16:36:23.953Z,6.61
2023-03-17T16:38:52.147Z,6.61
2023-03-17T16:41:23.657Z,6.61
2023-03-17T16:43:55.315Z,6.61
2023-03-17T16:46:24.162Z,6.62
2023-03-17T16:48:59.435Z,6.63
2023-03-17T16:51:29.783Z,6.65
2023-03-17T16:54:00.761Z,6.66
2023-03-17T16:56:29.986Z,6.66
2023-03-17T16:58:58.786Z,6.64
2023-03-17T17:01:27.853Z,6.61
2023-03-17T17:03:56.888Z,6.60
2023-03-17T17:06:28.292Z,6.64
2023-03-17T17:08:56.331Z,6.66
2023-03-17T17:11:24.519Z,6.69
2023-03-17T17:13:53.531Z,6.72
2023-03-17T17:16:21.929Z,6.74
2023-03-17T17:18:49.951Z,6.75
2023-03-17T17:21:19.083Z,6.74
2023-03-17T17:23:47.219Z,6.73
2023-03-17T17:26:21.232Z,6.74
2023-03-17T17:28:49.705Z,6.75
2023-03-17T17:31:17.989Z,6.80
2023-03-17T17:33:47.093Z,6.90
2023-03-17T17:36:16.240Z,6.93
2023-03-17T17:38:44.536Z,6.93
2023-03-17T17:41:12.537Z,6.91
2023-03-17T17:43:41.364Z,6.90
2023-03-17T17:46:11.930Z,6.80
2023-03-17T17:48:39.923Z,6.82
2023-03-17T17:51:07.861Z,6.85
2023-03-17T17:53:38.354Z,6.86
2023-03-17T17:56:06.813Z,6.88
2023-03-17T17:58:36.314Z,6.92
2023-03-17T18:01:05.621Z,6.94
2023-03-17T18:03:33.987Z,6.94
2023-03-17T18:06:02.612Z,6.95
2023-03-17T18:08:30.881Z,6.94
2023-03-17T18:10:59.737Z,6.91
2023-03-17T18:13:28.307Z,6.90
2023-03-17T18:15:57.181Z,6.90
2023-03-17T18:18:27.533Z,6.86
2023-03-17T18:20:55.832Z,6.86
2023-03-17T18:23:24.092Z,6.88
2023-03-17T18:25:59.941Z,6.92
2023-03-17T18:28:28.186Z,6.95
2023-03-17T18:31:09.608Z,6.98
2023-03-17T18:33:40.604Z,7.00
2023-03-17T18:36:08.975Z,7.00
2023-03-17T18:38:37.708Z,6.98
2023-03-17T18:41:06.998Z,6.99
2023-03-17T18:43:38.872Z,6.99
2023-03-17T18:46:07.555Z,6.99
2023-03-17T18:48:36.432Z,7.01
2023-03-17T18:51:06.954Z,7.04
2023-03-17T18:53:35.666Z,7.05
2023-03-17T18:56:07.088Z,7.07
2023-03-17T18:58:36.209Z,7.08
2023-03-17T19:01:05.110Z,7.08
2023-03-17T19:03:35.301Z,7.05
2023-03-17T19:06:14.277Z,7.03
2023-03-17T19:08:42.460Z,7.02
2023-03-17T19:11:11.489Z,7.02
2023-03-17T19:13:39.951Z,7.02
2023-03-17T19:16:11.880Z,7.02
2023-03-17T19:18:42.497Z,7.02
2023-03-17T19:21:11.377Z,7.02
2023-03-17T19:23:43.692Z,7.01
2023-03-17T19:26:11.963Z,7.00
2023-03-17T19:28:39.923Z,6.99
2023-03-17T19:31:07.865Z,6.96
2023-03-17T19:33:36.650Z,6.96
2023-03-17T19:36:11.968Z,6.95
2023-03-17T19:38:43.719Z,6.96
2023-03-17T19:41:12.165Z,6.97
2023-03-17T19:43:41.618Z,6.96
2023-03-17T19:46:11.416Z,6.95
2023-03-17T19:48:40.881Z,6.93
2023-03-17T19:51:09.419Z,6.90
2023-03-17T19:53:45.024Z,6.90
2023-03-17T19:56:12.978Z,6.89
2023-03-17T19:58:41.412Z,6.90
2023-03-17T20:01:09.672Z,6.93
2023-03-17T20:03:42.467Z,6.93
2023-03-17T20:06:16.898Z,6.93
2023-03-17T20:08:45.821Z,6.96
2023-03-17T20:11:13.976Z,7.01
2023-03-17T20:13:42.038Z,7.04
2023-03-17T20:16:10.164Z,7.06
2023-03-17T20:18:38.237Z,7.07
2023-03-17T20:21:11.720Z,7.11
2023-03-17T20:23:39.841Z,7.15
2023-03-17T20:26:08.455Z,7.20
2023-03-17T20:28:36.933Z,7.24
2023-03-17T20:31:05.032Z,7.27
2023-03-17T20:33:34.991Z,7.26
2023-03-17T20:36:04.767Z,7.26
2023-03-17T20:38:36.893Z,7.25
2023-03-17T20:41:25.630Z,7.25
2023-03-17T20:43:53.650Z,7.26
2023-03-17T20:46:22.777Z,7.28
2023-03-17T20:48:58.788Z,7.27
2023-03-17T20:51:31.355Z,7.24
2023-03-17T20:54:00.858Z,7.23
2023-03-17T20:56:29.843Z,7.25
2023-03-17T20:59:04.976Z,7.25
2023-03-17T21:01:33.603Z,7.25
2023-03-17T21:04:05.777Z,7.23
2023-03-17T21:06:34.353Z,7.22
2023-03-17T21:09:02.692Z,7.21
2023-03-17T21:11:31.876Z,7.19
2023-03-17T21:14:00.004Z,7.15
2023-03-17T21:16:28.601Z,7.13
2023-03-17T21:18:59.065Z,7.08
2023-03-17T21:21:27.429Z,7.08
2023-03-17T21:23:55.812Z,7.06
2023-03-17T21:26:24.775Z,7.06
2023-03-17T21:28:53.556Z,7.08
2023-03-17T21:31:21.606Z,7.07
2023-03-17T21:33:51.123Z,7.08
2023-03-17T21:36:20.937Z,7.05
2023-03-17T21:38:50.208Z,7.06
2023-03-17T21:41:30.532Z,7.04
2023-03-17T21:43:59.612Z,7.05
2023-03-17T21:46:27.726Z,7.02
2023-03-17T21:48:56.125Z,7.03
2023-03-17T21:51:26.101Z,6.98
2023-03-17T21:53:54.498Z,6.99
2023-03-17T21:56:23.125Z,6.98
2023-03-17T21:58:52.226Z,6.95
2023-03-17T22:01:22.207Z,6.97
2023-03-17T22:03:51.306Z,6.98
2023-03-17T22:06:20.377Z,6.97
2023-03-17T22:08:50.627Z,6.94
2023-03-17T22:11:20.133Z,6.95
2023-03-17T22:13:48.838Z,6.96
2023-03-17T22:16:17.214Z,6.96
2023-03-17T22:18:47.555Z,6.97
2023-03-17T22:21:16.139Z,6.96
2023-03-17T22:23:46.373Z,6.96
2023-03-17T22:26:17.242Z,6.95
2023-03-17T22:28:50.905Z,6.96
2023-03-17T22:31:24.038Z,6.95
2023-03-17T22:33:55.345Z,6.96
2023-03-17T22:36:28.140Z,6.95
2023-03-17T22:39:00.176Z,6.95
2023-03-17T22:41:32.139Z,6.95
2023-03-17T22:44:04.119Z,6.94
2023-03-17T22:46:35.140Z,6.91
2023-03-17T22:49:06.815Z,6.91
2023-03-17T22:51:38.195Z,6.89
2023-03-17T22:54:13.245Z,6.88
2023-03-17T22:56:45.495Z,6.88
2023-03-17T22:59:16.799Z,6.90
2023-03-17T23:01:48.185Z,6.89
2023-03-17T23:04:20.092Z,6.90
2023-03-17T23:06:52.487Z,6.89
2023-03-17T23:09:24.147Z,6.81
2023-03-17T23:11:54.391Z,6.82
2023-03-17T23:14:26.569Z,6.79
2023-03-17T23:16:57.718Z,6.79
2023-03-17T23:19:31.479Z,6.81
2023-03-17T23:22:03.119Z,6.82
2023-03-17T23:24:33.696Z,6.82
2023-03-17T23:27:04.476Z,6.81
2023-03-17T23:29:35.135Z,6.82
2023-03-17T23:32:06.713Z,6.79
2023-03-17T23:42:32.848Z,6.73
2023-03-17T23:45:01.530Z,6.68
2023-03-17T23:47:29.342Z,6.68
2023-03-17T23:49:57.876Z,6.62
2023-03-17T23:52:25.048Z,6.59
2023-03-17T23:54:52.778Z,6.54
2023-03-17T23:57:19.547Z,6.49
2023-03-17T23:59:46.401Z,6.49
